sensor_id;sensor_type;location;lat;lon;timestamp;temperature;humidity
52275;DHT22;38228;50.940;4.024;2023-05-16T00:02:16;9.20;99.90
52275;DHT22;38228;50.940;4.024;2023-05-16T00:04:42;9.30;99.90
52275;DHT22;38228;50.940;4.024;2023-05-16T00:07:08;9.40;99.90
52275;DHT22;38228;50.940;4.024;2023-05-16T00:09:34;9.50;99.90
52275;DHT22;38228;50.940;4.024;2023-05-16T00:11:59;9.40;99.90
52275;DHT22;38228;50.940;4.024;2023-05-16T00:14:25;9.40;99.90
52275;DHT22;38228;50.940;4.024;2023-05-16T00:16:54;9.50;99.90
52275;DHT22;38228;50.940;4.024;2023-05-16T00:19:23;9.70;99.90
52275;DHT22;38228;50.940;4.024;2023-05-16T00:21:48;9.70;99.90
52275;DHT22;38228;50.940;4.024;2023-05-16T00:24:14;9.60;99.90
52275;DHT22;38228;50.940;4.024;2023-05-16T00:26:41;9.50;99.90
52275;DHT22;38228;50.940;4.024;2023-05-16T00:29:06;9.30;99.90
52275;DHT22;38228;50.940;4.024;2023-05-16T00:31:32;9.20;99.90
52275;DHT22;38228;50.940;4.024;2023-05-16T00:33:58;9.00;99.90
52275;DHT22;38228;50.940;4.024;2023-05-16T00:36:24;9.20;99.90
52275;DHT22;38228;50.940;4.024;2023-05-16T00:38:50;9.20;99.90
52275;DHT22;38228;50.940;4.024;2023-05-16T00:41:16;9.20;99.90
52275;DHT22;38228;50.940;4.024;2023-05-16T00:43:42;9.10;99.90
52275;DHT22;38228;50.940;4.024;2023-05-16T00:46:07;9.10;99.90
52275;DHT22;38228;50.940;4.024;2023-05-16T00:48:33;9.30;99.90
52275;DHT22;38228;50.940;4.024;2023-05-16T00:51:00;9.30;99.90
52275;DHT22;38228;50.940;4.024;2023-05-16T00:53:26;9.00;99.90
52275;DHT22;38228;50.940;4.024;2023-05-16T00:55:52;8.90;99.90
52275;DHT22;38228;50.940;4.024;2023-05-16T00:58:18;8.80;99.90
52275;DHT22;38228;50.940;4.024;2023-05-16T01:00:45;8.90;99.90
52275;DHT22;38228;50.940;4.024;2023-05-16T01:03:12;9.00;99.90
52275;DHT22;38228;50.940;4.024;2023-05-16T01:05:38;9.00;99.90
52275;DHT22;38228;50.940;4.024;2023-05-16T01:08:03;9.10;99.90
52275;DHT22;38228;50.940;4.024;2023-05-16T01:10:43;9.10;99.90
52275;DHT22;38228;50.940;4.024;2023-05-16T01:13:20;9.10;99.90
52275;DHT22;38228;50.940;4.024;2023-05-16T01:15:58;8.90;99.90
52275;DHT22;38228;50.940;4.024;2023-05-16T01:18:51;8.80;99.90
52275;DHT22;38228;50.940;4.024;2023-05-16T01:21:48;8.90;99.90
52275;DHT22;38228;50.940;4.024;2023-05-16T01:24:26;8.90;99.90
52275;DHT22;38228;50.940;4.024;2023-05-16T01:26:58;8.90;99.90
52275;DHT22;38228;50.940;4.024;2023-05-16T01:29:24;8.90;99.90
52275;DHT22;38228;50.940;4.024;2023-05-16T01:31:50;8.80;99.90
52275;DHT22;38228;50.940;4.024;2023-05-16T01:34:16;8.90;99.90
52275;DHT22;38228;50.940;4.024;2023-05-16T01:37:15;8.80;99.90
52275;DHT22;38228;50.940;4.024;2023-05-16T01:40:06;8.70;99.90
52275;DHT22;38228;50.940;4.024;2023-05-16T01:42:37;8.70;99.90
52275;DHT22;38228;50.940;4.024;2023-05-16T01:45:31;8.70;99.90
52275;DHT22;38228;50.940;4.024;2023-05-16T01:48:05;8.60;99.90
52275;DHT22;38228;50.940;4.024;2023-05-16T01:50:33;8.60;99.90
52275;DHT22;38228;50.940;4.024;2023-05-16T01:53:07;8.60;99.90
52275;DHT22;38228;50.940;4.024;2023-05-16T01:55:44;8.50;99.90
52275;DHT22;38228;50.940;4.024;2023-05-16T01:58:11;8.50;99.90
52275;DHT22;38228;50.940;4.024;2023-05-16T02:00:39;8.50;99.90
52275;DHT22;38228;50.940;4.024;2023-05-16T02:03:05;8.60;99.90
52275;DHT22;38228;50.940;4.024;2023-05-16T02:05:31;8.60;99.90
52275;DHT22;38228;50.940;4.024;2023-05-16T02:07:58;8.50;99.90
52275;DHT22;38228;50.940;4.024;2023-05-16T02:10:24;8.50;99.90
52275;DHT22;38228;50.940;4.024;2023-05-16T02:12:50;8.40;99.90
52275;DHT22;38228;50.940;4.024;2023-05-16T02:15:16;8.40;99.90
52275;DHT22;38228;50.940;4.024;2023-05-16T02:17:42;8.40;99.90
52275;DHT22;38228;50.940;4.024;2023-05-16T02:20:08;8.40;99.90
52275;DHT22;38228;50.940;4.024;2023-05-16T02:22:35;8.40;99.90
52275;DHT22;38228;50.940;4.024;2023-05-16T02:25:02;8.10;99.90
52275;DHT22;38228;50.940;4.024;2023-05-16T02:27:28;8.10;99.90
52275;DHT22;38228;50.940;4.024;2023-05-16T02:29:54;8.30;99.90
52275;DHT22;38228;50.940;4.024;2023-05-16T02:32:20;8.20;99.90
52275;DHT22;38228;50.940;4.024;2023-05-16T02:34:45;8.20;99.90
52275;DHT22;38228;50.940;4.024;2023-05-16T02:37:11;8.30;99.90
52275;DHT22;38228;50.940;4.024;2023-05-16T02:39:37;8.20;99.90
52275;DHT22;38228;50.940;4.024;2023-05-16T02:42:04;8.30;99.90
52275;DHT22;38228;50.940;4.024;2023-05-16T02:44:29;8.30;99.90
52275;DHT22;38228;50.940;4.024;2023-05-16T02:46:55;8.30;99.90
52275;DHT22;38228;50.940;4.024;2023-05-16T02:49:21;8.30;99.90
52275;DHT22;38228;50.940;4.024;2023-05-16T02:51:47;8.30;99.90
52275;DHT22;38228;50.940;4.024;2023-05-16T02:54:14;8.30;99.90
52275;DHT22;38228;50.940;4.024;2023-05-16T02:56:39;8.30;99.90
52275;DHT22;38228;50.940;4.024;2023-05-16T02:59:05;8.30;99.90
52275;DHT22;38228;50.940;4.024;2023-05-16T03:01:31;8.20;99.90
52275;DHT22;38228;50.940;4.024;2023-05-16T03:03:57;8.20;99.90
52275;DHT22;38228;50.940;4.024;2023-05-16T03:06:22;8.20;99.90
52275;DHT22;38228;50.940;4.024;2023-05-16T03:08:48;8.20;99.90
52275;DHT22;38228;50.940;4.024;2023-05-16T03:11:15;8.20;99.90
52275;DHT22;38228;50.940;4.024;2023-05-16T03:13:43;8.00;99.90
52275;DHT22;38228;50.940;4.024;2023-05-16T03:16:09;7.80;99.90
52275;DHT22;38228;50.940;4.024;2023-05-16T03:18:35;7.90;99.90
52275;DHT22;38228;50.940;4.024;2023-05-16T03:21:00;7.90;99.90
52275;DHT22;38228;50.940;4.024;2023-05-16T03:23:27;8.00;99.90
52275;DHT22;38228;50.940;4.024;2023-05-16T03:25:53;8.00;99.90
52275;DHT22;38228;50.940;4.024;2023-05-16T03:28:19;8.00;99.90
52275;DHT22;38228;50.940;4.024;2023-05-16T03:30:45;7.90;99.90
52275;DHT22;38228;50.940;4.024;2023-05-16T03:33:10;7.80;99.90
52275;DHT22;38228;50.940;4.024;2023-05-16T03:35:37;7.70;99.90
52275;DHT22;38228;50.940;4.024;2023-05-16T03:38:03;7.70;99.90
52275;DHT22;38228;50.940;4.024;2023-05-16T03:40:28;7.80;99.90
52275;DHT22;38228;50.940;4.024;2023-05-16T03:42:54;7.80;99.90
52275;DHT22;38228;50.940;4.024;2023-05-16T03:45:20;7.90;99.90
52275;DHT22;38228;50.940;4.024;2023-05-16T03:47:48;7.90;99.90
52275;DHT22;38228;50.940;4.024;2023-05-16T03:50:13;7.90;99.90
52275;DHT22;38228;50.940;4.024;2023-05-16T03:52:39;7.90;99.90
52275;DHT22;38228;50.940;4.024;2023-05-16T03:55:06;7.80;99.90
52275;DHT22;38228;50.940;4.024;2023-05-16T03:57:33;7.70;99.90
52275;DHT22;38228;50.940;4.024;2023-05-16T03:59:59;7.70;99.90
52275;DHT22;38228;50.940;4.024;2023-05-16T04:02:25;7.70;99.90
52275;DHT22;38228;50.940;4.024;2023-05-16T04:04:50;7.70;99.90
52275;DHT22;38228;50.940;4.024;2023-05-16T04:07:16;7.70;99.90
52275;DHT22;38228;50.940;4.024;2023-05-16T04:09:42;7.70;99.90
52275;DHT22;38228;50.940;4.024;2023-05-16T04:12:08;7.70;99.90
52275;DHT22;38228;50.940;4.024;2023-05-16T04:14:34;7.70;99.90
52275;DHT22;38228;50.940;4.024;2023-05-16T04:17:00;7.80;99.90
52275;DHT22;38228;50.940;4.024;2023-05-16T04:19:25;7.80;99.90
52275;DHT22;38228;50.940;4.024;2023-05-16T04:21:51;7.80;99.90
52275;DHT22;38228;50.940;4.024;2023-05-16T04:24:17;7.90;99.90
52275;DHT22;38228;50.940;4.024;2023-05-16T04:26:43;7.80;99.90
52275;DHT22;38228;50.940;4.024;2023-05-16T04:29:09;7.80;99.90
52275;DHT22;38228;50.940;4.024;2023-05-16T04:31:36;7.70;99.90
52275;DHT22;38228;50.940;4.024;2023-05-16T04:34:02;7.70;99.90
52275;DHT22;38228;50.940;4.024;2023-05-16T04:36:28;7.70;99.90
52275;DHT22;38228;50.940;4.024;2023-05-16T04:38:55;7.80;99.90
52275;DHT22;38228;50.940;4.024;2023-05-16T04:41:21;7.70;99.90
52275;DHT22;38228;50.940;4.024;2023-05-16T04:43:50;7.80;99.90
52275;DHT22;38228;50.940;4.024;2023-05-16T04:46:19;7.80;99.90
52275;DHT22;38228;50.940;4.024;2023-05-16T04:48:45;7.90;99.90
52275;DHT22;38228;50.940;4.024;2023-05-16T04:51:11;8.00;99.90
52275;DHT22;38228;50.940;4.024;2023-05-16T04:53:37;8.00;99.90
52275;DHT22;38228;50.940;4.024;2023-05-16T04:56:03;8.10;99.90
52275;DHT22;38228;50.940;4.024;2023-05-16T04:58:30;8.20;99.90
52275;DHT22;38228;50.940;4.024;2023-05-16T05:00:56;8.30;99.90
52275;DHT22;38228;50.940;4.024;2023-05-16T05:03:22;8.40;99.90
52275;DHT22;38228;50.940;4.024;2023-05-16T05:05:48;8.40;99.90
52275;DHT22;38228;50.940;4.024;2023-05-16T05:08:14;8.50;99.90
52275;DHT22;38228;50.940;4.024;2023-05-16T05:10:40;8.60;99.90
52275;DHT22;38228;50.940;4.024;2023-05-16T05:13:06;8.60;99.90
52275;DHT22;38228;50.940;4.024;2023-05-16T05:15:32;8.50;99.90
52275;DHT22;38228;50.940;4.024;2023-05-16T05:17:58;8.60;99.90
52275;DHT22;38228;50.940;4.024;2023-05-16T05:20:25;8.70;99.90
52275;DHT22;38228;50.940;4.024;2023-05-16T05:22:53;8.60;99.90
52275;DHT22;38228;50.940;4.024;2023-05-16T05:25:19;8.60;99.90
52275;DHT22;38228;50.940;4.024;2023-05-16T05:27:45;8.60;99.90
52275;DHT22;38228;50.940;4.024;2023-05-16T05:30:11;8.40;99.90
52275;DHT22;38228;50.940;4.024;2023-05-16T05:32:37;8.50;99.90
52275;DHT22;38228;50.940;4.024;2023-05-16T05:35:03;8.60;99.90
52275;DHT22;38228;50.940;4.024;2023-05-16T05:37:29;8.80;99.90
52275;DHT22;38228;50.940;4.024;2023-05-16T05:39:55;8.90;99.90
52275;DHT22;38228;50.940;4.024;2023-05-16T05:42:21;8.90;99.90
52275;DHT22;38228;50.940;4.024;2023-05-16T05:44:47;9.10;99.90
52275;DHT22;38228;50.940;4.024;2023-05-16T05:47:13;9.00;99.90
52275;DHT22;38228;50.940;4.024;2023-05-16T05:49:39;9.20;99.90
52275;DHT22;38228;50.940;4.024;2023-05-16T05:52:05;9.40;99.90
52275;DHT22;38228;50.940;4.024;2023-05-16T05:54:31;9.60;99.90
52275;DHT22;38228;50.940;4.024;2023-05-16T05:56:57;9.70;99.90
52275;DHT22;38228;50.940;4.024;2023-05-16T05:59:23;9.80;99.90
52275;DHT22;38228;50.940;4.024;2023-05-16T06:01:49;9.90;99.90
52275;DHT22;38228;50.940;4.024;2023-05-16T06:04:21;9.80;99.90
52275;DHT22;38228;50.940;4.024;2023-05-16T06:06:46;9.90;99.90
52275;DHT22;38228;50.940;4.024;2023-05-16T06:09:12;10.00;99.90
52275;DHT22;38228;50.940;4.024;2023-05-16T06:11:40;10.10;99.90
52275;DHT22;38228;50.940;4.024;2023-05-16T06:14:06;10.10;99.90
52275;DHT22;38228;50.940;4.024;2023-05-16T06:16:32;10.20;99.90
52275;DHT22;38228;50.940;4.024;2023-05-16T06:18:58;10.20;99.90
52275;DHT22;38228;50.940;4.024;2023-05-16T06:21:23;10.20;99.90
52275;DHT22;38228;50.940;4.024;2023-05-16T06:23:49;10.30;99.90
52275;DHT22;38228;50.940;4.024;2023-05-16T06:26:15;10.50;99.90
52275;DHT22;38228;50.940;4.024;2023-05-16T06:28:41;10.60;99.90
52275;DHT22;38228;50.940;4.024;2023-05-16T06:31:07;10.80;99.90
52275;DHT22;38228;50.940;4.024;2023-05-16T06:33:32;11.00;99.90
52275;DHT22;38228;50.940;4.024;2023-05-16T06:35:59;11.10;99.90
52275;DHT22;38228;50.940;4.024;2023-05-16T06:38:24;11.10;99.90
52275;DHT22;38228;50.940;4.024;2023-05-16T06:40:50;11.20;99.90
52275;DHT22;38228;50.940;4.024;2023-05-16T06:43:16;11.10;99.90
52275;DHT22;38228;50.940;4.024;2023-05-16T06:45:43;11.20;99.90
52275;DHT22;38228;50.940;4.024;2023-05-16T06:48:11;11.00;99.90
52275;DHT22;38228;50.940;4.024;2023-05-16T06:50:37;11.10;99.90
52275;DHT22;38228;50.940;4.024;2023-05-16T06:53:03;11.00;99.90
52275;DHT22;38228;50.940;4.024;2023-05-16T06:55:31;10.90;99.90
52275;DHT22;38228;50.940;4.024;2023-05-16T06:57:56;10.90;99.90
52275;DHT22;38228;50.940;4.024;2023-05-16T07:00:22;10.90;99.90
52275;DHT22;38228;50.940;4.024;2023-05-16T07:02:48;10.90;99.90
52275;DHT22;38228;50.940;4.024;2023-05-16T07:05:14;10.90;99.90
52275;DHT22;38228;50.940;4.024;2023-05-16T07:07:40;11.20;99.90
52275;DHT22;38228;50.940;4.024;2023-05-16T07:10:06;11.20;99.90
52275;DHT22;38228;50.940;4.024;2023-05-16T07:12:34;11.30;99.90
52275;DHT22;38228;50.940;4.024;2023-05-16T07:15:00;11.30;99.90
52275;DHT22;38228;50.940;4.024;2023-05-16T07:17:26;11.20;99.90
52275;DHT22;38228;50.940;4.024;2023-05-16T07:19:51;11.40;99.90
52275;DHT22;38228;50.940;4.024;2023-05-16T07:22:17;11.50;99.90
52275;DHT22;38228;50.940;4.024;2023-05-16T07:24:43;11.60;99.90
52275;DHT22;38228;50.940;4.024;2023-05-16T07:27:08;11.90;99.90
52275;DHT22;38228;50.940;4.024;2023-05-16T07:29:35;12.40;99.90
52275;DHT22;38228;50.940;4.024;2023-05-16T07:32:01;12.60;99.90
52275;DHT22;38228;50.940;4.024;2023-05-16T07:34:27;12.40;99.90
52275;DHT22;38228;50.940;4.024;2023-05-16T07:36:53;12.40;99.90
52275;DHT22;38228;50.940;4.024;2023-05-16T07:39:19;12.60;99.90
52275;DHT22;38228;50.940;4.024;2023-05-16T07:41:45;13.20;99.90
52275;DHT22;38228;50.940;4.024;2023-05-16T07:44:10;13.30;99.90
52275;DHT22;38228;50.940;4.024;2023-05-16T07:46:36;13.40;99.90
52275;DHT22;38228;50.940;4.024;2023-05-16T07:49:02;13.40;99.90
52275;DHT22;38228;50.940;4.024;2023-05-16T07:51:27;13.40;99.90
52275;DHT22;38228;50.940;4.024;2023-05-16T07:53:53;13.20;99.90
52275;DHT22;38228;50.940;4.024;2023-05-16T07:56:19;13.60;99.90
52275;DHT22;38228;50.940;4.024;2023-05-16T07:58:47;13.90;99.90
52275;DHT22;38228;50.940;4.024;2023-05-16T08:01:13;13.50;99.90
52275;DHT22;38228;50.940;4.024;2023-05-16T08:03:39;13.60;99.90
52275;DHT22;38228;50.940;4.024;2023-05-16T08:06:05;14.10;99.90
52275;DHT22;38228;50.940;4.024;2023-05-16T08:08:31;14.60;99.90
52275;DHT22;38228;50.940;4.024;2023-05-16T08:10:56;14.80;99.90
52275;DHT22;38228;50.940;4.024;2023-05-16T08:13:22;14.30;99.90
52275;DHT22;38228;50.940;4.024;2023-05-16T08:15:48;14.70;99.90
52275;DHT22;38228;50.940;4.024;2023-05-16T08:18:14;14.90;99.90
52275;DHT22;38228;50.940;4.024;2023-05-16T08:20:41;15.00;99.90
52275;DHT22;38228;50.940;4.024;2023-05-16T08:23:07;14.70;99.90
52275;DHT22;38228;50.940;4.024;2023-05-16T08:25:33;15.00;99.90
52275;DHT22;38228;50.940;4.024;2023-05-16T08:28:00;15.40;99.90
52275;DHT22;38228;50.940;4.024;2023-05-16T08:30:28;15.40;99.90
52275;DHT22;38228;50.940;4.024;2023-05-16T08:32:54;14.70;99.90
52275;DHT22;38228;50.940;4.024;2023-05-16T08:35:20;14.50;99.90
52275;DHT22;38228;50.940;4.024;2023-05-16T08:37:46;14.70;99.90
52275;DHT22;38228;50.940;4.024;2023-05-16T08:40:11;15.00;99.90
52275;DHT22;38228;50.940;4.024;2023-05-16T08:42:39;15.10;99.90
52275;DHT22;38228;50.940;4.024;2023-05-16T08:45:06;15.10;99.90
52275;DHT22;38228;50.940;4.024;2023-05-16T08:47:32;14.90;99.90
52275;DHT22;38228;50.940;4.024;2023-05-16T08:50:02;15.20;99.90
52275;DHT22;38228;50.940;4.024;2023-05-16T08:52:30;15.40;99.90
52275;DHT22;38228;50.940;4.024;2023-05-16T08:55:02;15.80;99.90
52275;DHT22;38228;50.940;4.024;2023-05-16T08:57:32;15.40;99.90
52275;DHT22;38228;50.940;4.024;2023-05-16T08:59:59;15.10;99.90
52275;DHT22;38228;50.940;4.024;2023-05-16T09:02:26;14.90;99.90
52275;DHT22;38228;50.940;4.024;2023-05-16T09:04:53;14.90;99.90
52275;DHT22;38228;50.940;4.024;2023-05-16T09:07:21;14.70;99.90
52275;DHT22;38228;50.940;4.024;2023-05-16T09:09:47;14.40;99.90
52275;DHT22;38228;50.940;4.024;2023-05-16T09:12:13;14.40;99.90
52275;DHT22;38228;50.940;4.024;2023-05-16T09:14:40;14.40;99.90
52275;DHT22;38228;50.940;4.024;2023-05-16T09:17:07;14.50;99.90
52275;DHT22;38228;50.940;4.024;2023-05-16T10:36:52;15.80;99.90
52275;DHT22;38228;50.940;4.024;2023-05-16T10:39:18;16.80;99.90
52275;DHT22;38228;50.940;4.024;2023-05-16T10:41:44;16.50;99.90
52275;DHT22;38228;50.940;4.024;2023-05-16T10:44:14;16.90;99.90
52275;DHT22;38228;50.940;4.024;2023-05-16T10:46:43;17.20;99.90
52275;DHT22;38228;50.940;4.024;2023-05-16T10:49:24;17.50;99.90
52275;DHT22;38228;50.940;4.024;2023-05-16T10:52:10;17.30;99.90
52275;DHT22;38228;50.940;4.024;2023-05-16T10:54:37;16.60;99.90
52275;DHT22;38228;50.940;4.024;2023-05-16T10:57:19;16.00;99.90
52275;DHT22;38228;50.940;4.024;2023-05-16T10:59:48;16.00;99.90
52275;DHT22;38228;50.940;4.024;2023-05-16T11:02:26;16.30;99.90
52275;DHT22;38228;50.940;4.024;2023-05-16T11:04:54;16.90;99.90
52275;DHT22;38228;50.940;4.024;2023-05-16T11:07:24;17.00;99.90
52275;DHT22;38228;50.940;4.024;2023-05-16T11:10:08;16.90;99.90
52275;DHT22;38228;50.940;4.024;2023-05-16T11:12:48;17.30;99.90
52275;DHT22;38228;50.940;4.024;2023-05-16T11:15:23;17.60;99.90
52275;DHT22;38228;50.940;4.024;2023-05-16T11:17:53;17.80;99.90
52275;DHT22;38228;50.940;4.024;2023-05-16T11:20:32;17.70;99.90
52275;DHT22;38228;50.940;4.024;2023-05-16T11:23:18;17.70;99.90
52275;DHT22;38228;50.940;4.024;2023-05-16T11:25:56;17.70;99.90
52275;DHT22;38228;50.940;4.024;2023-05-16T11:28:26;17.50;99.90
52275;DHT22;38228;50.940;4.024;2023-05-16T11:30:54;17.20;99.90
52275;DHT22;38228;50.940;4.024;2023-05-16T11:33:21;17.20;99.90
52275;DHT22;38228;50.940;4.024;2023-05-16T11:36:06;17.40;99.90
52275;DHT22;38228;50.940;4.024;2023-05-16T11:38:33;17.60;99.90
52275;DHT22;38228;50.940;4.024;2023-05-16T11:41:06;17.80;99.90
52275;DHT22;38228;50.940;4.024;2023-05-16T11:43:43;17.30;99.90
52275;DHT22;38228;50.940;4.024;2023-05-16T11:46:13;17.00;99.90
52275;DHT22;38228;50.940;4.024;2023-05-16T11:48:41;16.80;99.90
52275;DHT22;38228;50.940;4.024;2023-05-16T11:51:07;16.80;99.90
52275;DHT22;38228;50.940;4.024;2023-05-16T11:53:33;16.70;99.90
52275;DHT22;38228;50.940;4.024;2023-05-16T11:55:59;16.40;99.90
52275;DHT22;38228;50.940;4.024;2023-05-16T11:58:26;16.80;99.90
52275;DHT22;38228;50.940;4.024;2023-05-16T12:00:53;17.00;99.90
52275;DHT22;38228;50.940;4.024;2023-05-16T12:03:19;17.00;99.90
52275;DHT22;38228;50.940;4.024;2023-05-16T12:05:55;17.20;99.90
52275;DHT22;38228;50.940;4.024;2023-05-16T12:08:25;17.20;99.90
52275;DHT22;38228;50.940;4.024;2023-05-16T12:10:51;17.10;99.90
52275;DHT22;38228;50.940;4.024;2023-05-16T12:13:19;16.90;99.90
52275;DHT22;38228;50.940;4.024;2023-05-16T12:15:46;16.80;99.90
52275;DHT22;38228;50.940;4.024;2023-05-16T12:18:12;16.50;99.90
52275;DHT22;38228;50.940;4.024;2023-05-16T12:20:38;16.20;99.90
52275;DHT22;38228;50.940;4.024;2023-05-16T12:23:04;16.40;99.90
52275;DHT22;38228;50.940;4.024;2023-05-16T12:25:34;16.90;99.90
52275;DHT22;38228;50.940;4.024;2023-05-16T12:28:03;17.10;99.90
52275;DHT22;38228;50.940;4.024;2023-05-16T12:30:31;17.20;99.90
52275;DHT22;38228;50.940;4.024;2023-05-16T12:33:10;17.60;99.90
52275;DHT22;38228;50.940;4.024;2023-05-16T12:35:42;17.60;99.90
52275;DHT22;38228;50.940;4.024;2023-05-16T12:38:09;17.60;99.90
52275;DHT22;38228;50.940;4.024;2023-05-16T12:40:36;17.60;99.90
52275;DHT22;38228;50.940;4.024;2023-05-16T12:43:04;17.70;99.90
52275;DHT22;38228;50.940;4.024;2023-05-16T12:45:31;17.50;99.90
52275;DHT22;38228;50.940;4.024;2023-05-16T12:48:03;17.20;99.90
52275;DHT22;38228;50.940;4.024;2023-05-16T12:50:32;17.40;99.90
52275;DHT22;38228;50.940;4.024;2023-05-16T12:52:59;17.50;99.90
52275;DHT22;38228;50.940;4.024;2023-05-16T12:55:25;17.80;99.90
52275;DHT22;38228;50.940;4.024;2023-05-16T12:57:51;17.40;99.90
52275;DHT22;38228;50.940;4.024;2023-05-16T13:00:20;17.00;99.90
52275;DHT22;38228;50.940;4.024;2023-05-16T13:02:48;17.30;99.90
52275;DHT22;38228;50.940;4.024;2023-05-16T13:05:14;17.60;99.90
52275;DHT22;38228;50.940;4.024;2023-05-16T13:07:40;17.60;99.90
52275;DHT22;38228;50.940;4.024;2023-05-16T13:10:10;17.70;99.90
52275;DHT22;38228;50.940;4.024;2023-05-16T13:12:39;17.70;99.90
52275;DHT22;38228;50.940;4.024;2023-05-16T13:15:07;17.80;99.90
52275;DHT22;38228;50.940;4.024;2023-05-16T13:17:37;18.00;99.90
52275;DHT22;38228;50.940;4.024;2023-05-16T13:20:04;17.90;99.50
52275;DHT22;38228;50.940;4.024;2023-05-16T13:22:37;17.30;99.90
52275;DHT22;38228;50.940;4.024;2023-05-16T13:25:03;17.30;99.90
52275;DHT22;38228;50.940;4.024;2023-05-16T13:27:31;17.60;99.90
52275;DHT22;38228;50.940;4.024;2023-05-16T13:29:57;17.90;99.90
52275;DHT22;38228;50.940;4.024;2023-05-16T13:32:23;17.90;99.90
52275;DHT22;38228;50.940;4.024;2023-05-16T13:34:49;18.40;99.90
52275;DHT22;38228;50.940;4.024;2023-05-16T13:37:16;18.10;99.00
52275;DHT22;38228;50.940;4.024;2023-05-16T13:39:42;18.30;99.40
52275;DHT22;38228;50.940;4.024;2023-05-16T13:42:08;18.20;99.50
52275;DHT22;38228;50.940;4.024;2023-05-16T13:44:33;18.60;99.20
52275;DHT22;38228;50.940;4.024;2023-05-16T13:46:59;18.40;98.40
52275;DHT22;38228;50.940;4.024;2023-05-16T13:49:25;18.20;98.60
52275;DHT22;38228;50.940;4.024;2023-05-16T13:51:51;18.00;99.60
52275;DHT22;38228;50.940;4.024;2023-05-16T13:54:20;17.90;99.40
52275;DHT22;38228;50.940;4.024;2023-05-16T13:56:47;17.80;99.70
52275;DHT22;38228;50.940;4.024;2023-05-16T13:59:13;18.00;99.20
52275;DHT22;38228;50.940;4.024;2023-05-16T14:01:39;18.10;99.90
52275;DHT22;38228;50.940;4.024;2023-05-16T14:04:04;18.70;99.10
52275;DHT22;38228;50.940;4.024;2023-05-16T14:06:31;18.30;99.20
52275;DHT22;38228;50.940;4.024;2023-05-16T14:08:57;18.40;99.40
52275;DHT22;38228;50.940;4.024;2023-05-16T14:11:23;18.40;99.70
52275;DHT22;38228;50.940;4.024;2023-05-16T14:13:52;18.40;99.60
52275;DHT22;38228;50.940;4.024;2023-05-16T14:16:18;18.40;98.80
52275;DHT22;38228;50.940;4.024;2023-05-16T14:18:43;18.50;98.20
52275;DHT22;38228;50.940;4.024;2023-05-16T14:21:10;18.80;99.20
52275;DHT22;38228;50.940;4.024;2023-05-16T14:23:35;19.20;98.50
52275;DHT22;38228;50.940;4.024;2023-05-16T14:26:01;19.30;98.70
52275;DHT22;38228;50.940;4.024;2023-05-16T14:28:27;19.30;98.50
52275;DHT22;38228;50.940;4.024;2023-05-16T14:30:53;19.30;97.60
52275;DHT22;38228;50.940;4.024;2023-05-16T14:33:19;19.20;98.20
52275;DHT22;38228;50.940;4.024;2023-05-16T14:35:44;19.50;98.30
52275;DHT22;38228;50.940;4.024;2023-05-16T14:38:10;20.10;98.10
52275;DHT22;38228;50.940;4.024;2023-05-16T14:40:36;20.50;97.50
52275;DHT22;38228;50.940;4.024;2023-05-16T14:43:01;20.90;97.00
52275;DHT22;38228;50.940;4.024;2023-05-16T14:45:29;20.20;95.80
52275;DHT22;38228;50.940;4.024;2023-05-16T14:47:54;19.80;97.30
52275;DHT22;38228;50.940;4.024;2023-05-16T14:50:20;20.60;97.40
52275;DHT22;38228;50.940;4.024;2023-05-16T14:52:46;20.10;96.60
52275;DHT22;38228;50.940;4.024;2023-05-16T14:55:12;19.90;97.40
52275;DHT22;38228;50.940;4.024;2023-05-16T14:57:37;20.50;96.30
52275;DHT22;38228;50.940;4.024;2023-05-16T15:00:04;20.20;95.60
52275;DHT22;38228;50.940;4.024;2023-05-16T15:02:30;19.90;95.90
52275;DHT22;38228;50.940;4.024;2023-05-16T15:04:55;19.70;96.00
52275;DHT22;38228;50.940;4.024;2023-05-16T15:07:21;19.70;96.00
52275;DHT22;38228;50.940;4.024;2023-05-16T15:09:47;18.90;96.60
52275;DHT22;38228;50.940;4.024;2023-05-16T15:12:13;18.40;97.70
52275;DHT22;38228;50.940;4.024;2023-05-16T15:14:38;18.60;97.80
52275;DHT22;38228;50.940;4.024;2023-05-16T15:17:04;18.70;97.50
52275;DHT22;38228;50.940;4.024;2023-05-16T15:19:30;19.00;97.60
52275;DHT22;38228;50.940;4.024;2023-05-16T15:21:55;19.50;97.10
52275;DHT22;38228;50.940;4.024;2023-05-16T15:24:21;19.70;96.80
52275;DHT22;38228;50.940;4.024;2023-05-16T15:26:47;19.40;96.50
52275;DHT22;38228;50.940;4.024;2023-05-16T15:29:14;18.90;97.80
52275;DHT22;38228;50.940;4.024;2023-05-16T15:31:39;18.90;98.30
52275;DHT22;38228;50.940;4.024;2023-05-16T15:34:05;19.50;97.20
52275;DHT22;38228;50.940;4.024;2023-05-16T15:36:33;19.80;96.80
52275;DHT22;38228;50.940;4.024;2023-05-16T15:38:59;19.70;96.20
52275;DHT22;38228;50.940;4.024;2023-05-16T15:41:25;19.90;95.40
52275;DHT22;38228;50.940;4.024;2023-05-16T15:43:51;20.20;96.60
52275;DHT22;38228;50.940;4.024;2023-05-16T15:46:16;20.90;95.90
52275;DHT22;38228;50.940;4.024;2023-05-16T15:48:42;21.00;95.50
52275;DHT22;38228;50.940;4.024;2023-05-16T15:51:13;20.80;94.30
52275;DHT22;38228;50.940;4.024;2023-05-16T15:53:40;19.90;95.40
52275;DHT22;38228;50.940;4.024;2023-05-16T15:56:07;19.40;96.20
52275;DHT22;38228;50.940;4.024;2023-05-16T15:58:32;18.80;96.40
52275;DHT22;38228;50.940;4.024;2023-05-16T16:00:58;18.80;97.40
52275;DHT22;38228;50.940;4.024;2023-05-16T16:03:24;19.40;96.20
52275;DHT22;38228;50.940;4.024;2023-05-16T16:05:50;20.20;95.60
52275;DHT22;38228;50.940;4.024;2023-05-16T16:08:17;20.10;95.70
52275;DHT22;38228;50.940;4.024;2023-05-16T16:10:44;20.50;95.60
52275;DHT22;38228;50.940;4.024;2023-05-16T16:13:10;21.00;95.00
52275;DHT22;38228;50.940;4.024;2023-05-16T16:15:37;21.30;94.00
52275;DHT22;38228;50.940;4.024;2023-05-16T16:18:03;21.80;93.50
52275;DHT22;38228;50.940;4.024;2023-05-16T16:20:30;21.50;93.60
52275;DHT22;38228;50.940;4.024;2023-05-16T16:22:56;21.80;93.50
52275;DHT22;38228;50.940;4.024;2023-05-16T16:25:22;21.80;92.30
52275;DHT22;38228;50.940;4.024;2023-05-16T16:27:48;21.50;92.90
52275;DHT22;38228;50.940;4.024;2023-05-16T16:30:14;21.30;93.60
52275;DHT22;38228;50.940;4.024;2023-05-16T16:32:39;21.40;92.90
52275;DHT22;38228;50.940;4.024;2023-05-16T16:35:05;21.60;93.00
52275;DHT22;38228;50.940;4.024;2023-05-16T16:37:31;21.80;92.60
52275;DHT22;38228;50.940;4.024;2023-05-16T16:39:57;21.00;93.00
52275;DHT22;38228;50.940;4.024;2023-05-16T16:42:22;21.20;92.60
52275;DHT22;38228;50.940;4.024;2023-05-16T16:44:51;20.70;93.20
52275;DHT22;38228;50.940;4.024;2023-05-16T16:47:18;20.30;93.60
52275;DHT22;38228;50.940;4.024;2023-05-16T16:49:44;20.10;94.20
52275;DHT22;38228;50.940;4.024;2023-05-16T16:52:10;20.40;94.10
52275;DHT22;38228;50.940;4.024;2023-05-16T16:54:35;20.80;93.70
52275;DHT22;38228;50.940;4.024;2023-05-16T16:57:01;21.40;93.50